Time;durP1;ratioP1;P1;durP2;ratioP2;P2;SDS_P1;SDS_P2;PMS_P1;PMS_P2;Temp;Humidity;BMP_temperature;BMP_pressure;BME280_temperature;BME280_humidity;BME280_pressure;Samples;Min_cycle;Max_cycle;Signal;HPM_P1;HPM_P2
2022/05/19 00:00:35;;;;;;;1.88;1.27;;;;;;;19.45;33.60;99219.38;5120147;27;20504;-65
2022/05/19 00:03:01;;;;;;;2.75;1.42;;;;;;;19.45;33.27;99212.19;5136664;27;20038;-65
2022/05/19 00:05:27;;;;;;;1.52;1.20;;;;;;;19.47;33.27;99220.03;5146284;27;20035;-65
2022/05/19 00:07:53;;;;;;;3.53;1.35;;;;;;;19.47;33.37;99222.72;5157264;27;20030;-64
2022/05/19 00:10:19;;;;;;;1.95;1.40;;;;;;;19.46;33.05;99221.91;5156924;27;20030;-65
2022/05/19 00:12:44;;;;;;;3.70;1.30;;;;;;;19.47;33.48;99218.19;5157454;27;20061;-65
2022/05/19 00:15:12;;;;;;;3.63;1.30;;;;;;;19.47;33.47;99207.47;5153868;27;20075;-64
2022/05/19 00:17:39;;;;;;;4.15;1.25;;;;;;;19.49;33.48;99221.50;5156912;27;20397;-64
2022/05/19 00:20:05;;;;;;;2.40;1.42;;;;;;;19.48;33.29;99202.91;5155319;27;20485;-64
2022/05/19 00:22:31;;;;;;;2.20;1.20;;;;;;;19.48;33.35;99190.31;5157406;27;20027;-65
2022/05/19 00:24:56;;;;;;;2.20;1.30;;;;;;;19.49;33.94;99199.22;5156792;27;20159;-64
2022/05/19 00:27:21;;;;;;;3.45;1.73;;;;;;;19.47;33.81;99196.72;5156941;27;20035;-64
2022/05/19 00:29:47;;;;;;;4.28;1.60;;;;;;;19.48;33.60;99187.63;5153570;27;20388;-64
2022/05/19 00:32:12;;;;;;;1.50;1.20;;;;;;;19.48;33.71;99190.31;5156936;27;20027;-64
2022/05/19 00:34:38;;;;;;;2.15;1.00;;;;;;;19.48;33.76;99187.63;5156370;27;20118;-64
2022/05/19 00:37:04;;;;;;;2.30;1.20;;;;;;;19.48;33.74;99187.63;5149573;27;20023;-64
2022/05/19 00:39:34;;;;;;;1.60;1.10;;;;;;;19.47;34.26;99193.19;5156495;27;20035;-64
2022/05/19 00:44:44;;;;;;;5.22;1.17;;;;;;;19.45;34.23;99208.66;5154425;27;20030;-63
2022/05/19 00:47:17;;;;;;;1.52;1.25;;;;;;;19.45;33.89;99204.13;5154765;27;20401;-64
2022/05/19 00:49:44;;;;;;;2.35;1.02;;;;;;;19.45;33.43;99203.28;5155430;27;20458;-64
2022/05/19 00:52:18;;;;;;;2.58;1.20;;;;;;;19.42;33.91;99203.66;5137791;27;20392;-65
2022/05/19 00:54:50;;;;;;;3.00;1.20;;;;;;;19.43;33.49;99197.25;5153798;27;20121;-64
2022/05/19 00:57:25;;;;;;;1.48;1.05;;;;;;;19.43;33.35;99195.44;5156909;27;20038;-65
2022/05/19 00:59:57;;;;;;;1.63;1.38;;;;;;;19.42;33.37;99201.81;5155723;27;20113;-65
2022/05/19 01:02:26;;;;;;;1.30;1.17;;;;;;;19.41;33.69;99197.47;5156533;27;20057;-65
2022/05/19 01:04:51;;;;;;;1.75;1.13;;;;;;;19.41;33.51;99202.81;5156113;27;20084;-65
2022/05/19 01:07:23;;;;;;;2.13;1.23;;;;;;;19.42;33.50;99198.28;5156237;27;20435;-64
2022/05/19 01:09:51;;;;;;;2.90;1.40;;;;;;;19.40;33.59;99201.16;5155186;27;20122;-65
2022/05/19 01:12:17;;;;;;;2.33;1.60;;;;;;;19.40;33.26;99201.16;5154288;27;20045;-65
2022/05/19 01:14:43;;;;;;;1.42;1.23;;;;;;;19.40;33.25;99194.97;5156031;27;20031;-64
2022/05/19 01:17:09;;;;;;;2.60;1.38;;;;;;;19.38;33.46;99208.56;5156781;27;20165;-65
2022/05/19 01:19:40;;;;;;;1.92;0.93;;;;;;;19.36;34.61;99208.75;5136566;27;20445;-65
2022/05/19 01:22:22;;;;;;;1.73;1.00;;;;;;;19.38;34.53;99192.47;5156139;27;20082;-65
2022/05/19 01:25:04;;;;;;;1.85;1.05;;;;;;;19.36;34.14;99205.22;5155680;27;20066;-65
2022/05/19 01:27:30;;;;;;;1.77;1.17;;;;;;;19.35;33.97;99204.41;5147814;27;20034;-65
2022/05/19 01:29:56;;;;;;;2.30;1.33;;;;;;;19.34;33.87;99202.75;5155058;27;20027;-65
2022/05/19 01:32:29;;;;;;;1.13;0.90;;;;;;;19.35;34.31;99200.88;5153996;27;20541;-64
2022/05/19 01:34:57;;;;;;;1.15;1.00;;;;;;;19.34;33.94;99205.44;5155365;27;20176;-65
2022/05/19 01:37:22;;;;;;;1.73;1.02;;;;;;;19.34;33.63;99209.94;5136793;27;20400;-65
2022/05/19 01:39:53;;;;;;;2.03;1.15;;;;;;;19.34;33.66;99191.16;5154918;27;20033;-65
2022/05/19 01:42:27;;;;;;;0.98;0.85;;;;;;;19.31;33.66;99207.66;5155500;27;20033;-65
2022/05/19 01:45:29;;;;;;;1.10;1.00;;;;;;;19.30;33.64;99200.63;5155180;27;20029;-65
2022/05/19 01:48:23;;;;;;;2.00;1.02;;;;;;;19.28;33.89;99195.44;5152952;27;20117;-65
2022/05/19 01:50:59;;;;;;;2.67;0.80;;;;;;;19.29;33.83;99185.56;5154854;27;20030;-65
2022/05/19 01:53:32;;;;;;;1.00;0.80;;;;;;;19.30;34.01;99200.63;5156012;27;20034;-65
2022/05/19 01:56:21;;;;;;;1.67;0.98;;;;;;;19.28;33.84;99198.13;5155317;27;20037;-65
2022/05/19 01:58:59;;;;;;;2.35;1.40;;;;;;;19.29;33.93;99207.00;5152407;27;20110;-65
2022/05/19 02:01:27;;;;;;;1.52;1.13;;;;;;;19.27;33.74;99195.63;5155003;27;20481;-65
2022/05/19 02:04:17;;;;;;;3.08;0.73;;;;;;;19.27;34.03;99191.09;5155198;27;20441;-64
2022/05/19 02:06:48;;;;;;;4.05;1.35;;;;;;;19.26;33.94;99186.75;5155134;27;20030;-65
2022/05/19 02:09:44;;;;;;;1.77;1.00;;;;;;;19.27;33.69;99185.72;5153262;27;20049;-64
2022/05/19 02:12:10;;;;;;;1.63;0.90;;;;;;;19.25;34.02;99186.94;5150195;27;20054;-65
2022/05/19 02:14:42;;;;;;;1.85;0.80;;;;;;;19.28;34.05;99186.56;5149832;27;20469;-65
2022/05/19 02:17:10;;;;;;;1.90;1.15;;;;;;;19.28;33.88;99187.38;5134362;27;20121;-65
2022/05/19 02:19:41;;;;;;;1.80;1.20;;;;;;;19.29;34.04;99197.09;5148132;27;20153;-65
2022/05/19 02:22:10;;;;;;;1.58;1.25;;;;;;;19.29;34.25;99190.91;5154315;27;20078;-65
2022/05/19 02:24:42;;;;;;;1.80;1.40;;;;;;;19.30;34.16;99198.75;5151199;27;20058;-65
2022/05/19 02:27:45;;;;;;;2.35;1.38;;;;;;;19.30;33.84;99198.75;5154672;27;20034;-65
2022/05/19 02:30:15;;;;;;;1.88;1.02;;;;;;;19.29;34.47;99201.66;5154759;27;20117;-65
2022/05/19 02:32:40;;;;;;;0.65;0.65;;;;;;;19.30;34.57;99196.09;5154835;27;20031;-65
2022/05/19 02:35:08;;;;;;;1.40;0.90;;;;;;;19.32;34.22;99196.72;5138188;27;20410;-65
2022/05/19 02:37:34;;;;;;;1.35;0.70;;;;;;;19.33;34.28;99195.72;5150829;27;20044;-65
2022/05/19 02:40:00;;;;;;;2.05;1.27;;;;;;;19.32;34.29;99202.09;5151796;27;20042;-65
2022/05/19 02:42:26;;;;;;;2.60;1.13;;;;;;;19.32;34.75;99204.78;5154747;27;20469;-65
2022/05/19 02:44:51;;;;;;;1.60;1.00;;;;;;;19.31;34.06;99191.56;5154346;27;20026;-65
2022/05/19 02:47:17;;;;;;;1.20;1.00;;;;;;;19.33;33.96;99194.91;5154339;27;20041;-65
2022/05/19 02:49:42;;;;;;;4.25;2.33;;;;;;;19.31;34.03;99188.88;5154329;27;20109;-65
2022/05/19 02:52:08;;;;;;;1.48;0.88;;;;;;;19.30;33.96;99189.91;5154050;27;20378;-64
2022/05/19 02:54:33;;;;;;;1.52;0.90;;;;;;;19.30;34.31;99171.13;5153731;27;20034;-65
2022/05/19 02:56:59;;;;;;;1.05;0.95;;;;;;;19.31;33.90;99175.47;5154268;27;20128;-65
2022/05/19 02:59:25;;;;;;;1.90;1.15;;;;;;;19.32;33.93;99163.72;5154016;27;20505;-64
2022/05/19 03:01:50;;;;;;;1.15;1.00;;;;;;;19.35;34.06;99161.50;5138315;27;20035;-65
2022/05/19 03:04:16;;;;;;;1.15;0.80;;;;;;;19.41;34.18;99159.91;5141512;27;20034;-65
2022/05/19 03:06:41;;;;;;;1.02;0.82;;;;;;;19.46;34.42;99152.13;5153746;27;20505;-65
2022/05/19 03:09:07;;;;;;;2.85;0.88;;;;;;;19.51;34.28;99155.06;5153274;27;20489;-65
2022/05/19 03:11:33;;;;;;;2.88;1.00;;;;;;;19.55;34.19;99157.38;5154923;27;20091;-65
2022/05/19 03:13:59;;;;;;;2.22;1.40;;;;;;;19.55;34.45;99157.38;5157938;27;20035;-65
2022/05/19 03:16:24;;;;;;;1.38;0.70;;;;;;;19.55;34.37;99176.16;5158174;27;20505;-65
2022/05/19 03:18:50;;;;;;;1.83;1.20;;;;;;;19.53;34.45;99165.63;5157360;27;20059;-64
2022/05/19 03:21:15;;;;;;;1.95;0.80;;;;;;;19.54;34.06;99169.13;5158382;27;20027;-65
2022/05/19 03:23:41;;;;;;;4.90;0.85;;;;;;;19.55;34.17;99171.63;5158243;27;20469;-65
2022/05/19 03:26:06;;;;;;;1.05;0.63;;;;;;;19.56;34.18;99167.09;5155904;27;20066;-65
2022/05/19 03:28:32;;;;;;;1.50;0.93;;;;;;;19.56;34.01;99167.91;5157592;27;20035;-64
2022/05/19 03:30:57;;;;;;;1.80;0.90;;;;;;;19.57;34.11;99164.22;5157426;27;20035;-64
2022/05/19 03:33:23;;;;;;;5.13;1.25;;;;;;;19.57;34.18;99164.22;5157643;27;20030;-64
2022/05/19 03:35:58;;;;;;;1.60;1.35;;;;;;;19.59;34.17;99162.16;5156003;27;20508;-65
2022/05/19 03:38:24;;;;;;;1.20;0.88;;;;;;;19.60;34.22;99169.19;5138021;27;20031;-64
2022/05/19 03:40:50;;;;;;;2.30;0.95;;;;;;;19.62;34.04;99174.41;5156874;27;20038;-64
2022/05/19 03:43:15;;;;;;;1.23;1.08;;;;;;;19.62;33.93;99177.09;5156438;27;20035;-64
2022/05/19 03:45:41;;;;;;;2.13;1.60;;;;;;;19.63;33.87;99170.69;5157613;27;20019;-66
2022/05/19 03:48:07;;;;;;;2.45;1.33;;;;;;;19.63;34.10;99178.75;5155844;27;20073;-63
2022/05/19 03:50:32;;;;;;;1.25;0.90;;;;;;;19.65;34.02;99180.22;5157973;27;20076;-63
2022/05/19 03:52:58;;;;;;;1.88;1.02;;;;;;;19.65;33.98;99177.53;5157585;27;20035;-63
2022/05/19 03:55:24;;;;;;;1.33;0.98;;;;;;;19.66;33.88;99176.50;5157208;27;20512;-64
2022/05/19 03:57:50;;;;;;;1.80;1.10;;;;;;;19.67;33.73;99190.75;5157576;27;20473;-64
2022/05/19 04:00:15;;;;;;;0.95;0.73;;;;;;;19.68;33.97;99187.03;5156704;27;20083;-64
2022/05/19 04:02:42;;;;;;;1.42;1.13;;;;;;;19.68;33.86;99192.41;5157633;27;20537;-65
2022/05/19 04:05:08;;;;;;;1.17;1.08;;;;;;;19.70;34.26;99190.38;5135929;27;20406;-65
2022/05/19 04:07:33;;;;;;;1.85;0.90;;;;;;;19.68;34.19;99192.41;5136423;27;20027;-64
2022/05/19 04:09:59;;;;;;;3.65;1.50;;;;;;;19.69;33.93;99195.94;5153118;27;20041;-65
2022/05/19 04:12:25;;;;;;;1.50;1.00;;;;;;;19.67;34.04;99196.97;5157320;27;20079;-65
2022/05/19 04:14:50;;;;;;;1.65;0.90;;;;;;;19.67;33.74;99194.28;5156950;27;20051;-65
2022/05/19 04:17:16;;;;;;;1.55;1.15;;;;;;;19.69;33.84;99185.22;5157387;27;20448;-65
2022/05/19 04:19:42;;;;;;;1.42;1.05;;;;;;;19.70;33.82;99184.19;5150116;27;20034;-65
2022/05/19 04:22:08;;;;;;;1.25;0.80;;;;;;;19.68;33.96;99181.69;5136628;27;20034;-65
2022/05/19 04:24:33;;;;;;;1.15;0.95;;;;;;;19.71;33.93;99191.19;5136276;27;20027;-65
2022/05/19 04:26:59;;;;;;;1.88;1.08;;;;;;;19.75;34.18;99184.44;5136389;27;20047;-65
2022/05/19 04:29:24;;;;;;;1.42;0.90;;;;;;;19.77;34.01;99175.19;5135670;27;20034;-64
2022/05/19 04:31:50;;;;;;;1.30;0.80;;;;;;;19.81;34.25;99179.13;5136151;27;20126;-65
2022/05/19 04:34:15;;;;;;;1.90;1.10;;;;;;;19.86;34.17;99173.19;5144033;27;20442;-65
2022/05/19 04:36:41;;;;;;;1.70;1.00;;;;;;;19.89;34.21;99172.03;5157157;27;20121;-65
2022/05/19 04:39:06;;;;;;;0.93;0.70;;;;;;;19.89;34.15;99169.34;5156447;27;20030;-65
2022/05/19 04:41:32;;;;;;;3.00;0.77;;;;;;;19.91;34.49;99175.38;5156030;27;20066;-65
2022/05/19 04:43:57;;;;;;;3.63;0.90;;;;;;;19.92;34.33;99174.34;5152847;27;20042;-64
2022/05/19 04:46:23;;;;;;;2.95;1.00;;;;;;;19.90;34.20;99171.00;5156907;27;20027;-65
2022/05/19 04:48:48;;;;;;;1.55;0.93;;;;;;;19.90;34.33;99182.56;5156593;27;20476;-65
2022/05/19 04:51:14;;;;;;;1.75;0.85;;;;;;;19.88;34.26;99178.41;5155958;27;20485;-65
2022/05/19 04:53:40;;;;;;;1.85;0.88;;;;;;;19.88;35.02;99187.28;5151614;27;20031;-65
2022/05/19 04:56:06;;;;;;;3.00;2.08;;;;;;;19.89;34.96;99191.66;5135618;27;20709;-65
2022/05/19 04:58:32;;;;;;;1.02;0.80;;;;;;;19.90;35.00;99200.53;5135784;27;20077;-65
2022/05/19 05:00:57;;;;;;;1.13;1.00;;;;;;;19.87;34.74;99196.38;5135015;27;20122;-65
2022/05/19 05:03:23;;;;;;;5.53;1.27;;;;;;;19.88;34.55;99197.22;5135573;27;20066;-64
2022/05/19 05:05:48;;;;;;;7.40;1.05;;;;;;;19.85;34.51;99197.56;5135602;27;20023;-65
2022/05/19 05:08:14;;;;;;;1.42;1.20;;;;;;;19.86;34.35;99196.53;5137729;27;20027;-64
2022/05/19 05:10:41;;;;;;;2.80;1.02;;;;;;;19.86;34.39;99204.59;5155116;27;20412;-65
2022/05/19 05:13:13;;;;;;;4.88;1.33;;;;;;;19.85;34.60;99197.56;5155791;27;20041;-65
2022/05/19 05:15:39;;;;;;;2.95;1.30;;;;;;;19.86;34.46;99210.78;5143278;27;20489;-65
2022/05/19 05:18:05;;;;;;;3.33;1.20;;;;;;;19.86;34.43;99202.72;5135433;27;20023;-65
2022/05/19 05:20:31;;;;;;;3.15;1.17;;;;;;;19.87;34.62;99204.41;5153880;27;20041;-64
2022/05/19 05:22:56;;;;;;;1.92;0.85;;;;;;;19.89;34.56;99193.50;5156018;27;20034;-65
2022/05/19 05:25:22;;;;;;;3.35;1.23;;;;;;;19.88;34.71;99194.53;5155118;27;20053;-64
2022/05/19 05:27:48;;;;;;;1.73;0.93;;;;;;;19.89;35.07;99188.97;5153180;27;20109;-65
2022/05/19 05:30:14;;;;;;;1.35;1.05;;;;;;;19.89;35.00;99185.47;5149859;27;20030;-64
2022/05/19 05:32:40;;;;;;;2.08;1.00;;;;;;;19.90;34.76;99182.56;5154285;27;20033;-64
2022/05/19 05:35:08;;;;;;;1.20;1.02;;;;;;;19.93;34.78;99194.78;5155130;27;20035;-65
2022/05/19 05:37:34;;;;;;;1.27;0.90;;;;;;;19.93;34.78;99190.25;5155134;27;20034;-65
2022/05/19 05:40:01;;;;;;;1.17;0.90;;;;;;;19.99;34.85;99177.09;5154494;27;20409;-65
2022/05/19 05:42:26;;;;;;;1.67;1.20;;;;;;;20.00;34.94;99184.94;5155646;27;20046;-65
2022/05/19 05:44:52;;;;;;;2.75;1.05;;;;;;;19.99;34.63;99188.66;5155327;27;20050;-65
2022/05/19 05:47:17;;;;;;;1.58;1.38;;;;;;;19.99;34.92;99183.28;5138823;27;20038;-65
2022/05/19 05:49:43;;;;;;;2.17;1.10;;;;;;;19.98;34.90;99170.88;5149830;27;20035;-65
2022/05/19 05:52:08;;;;;;;1.50;1.02;;;;;;;19.99;34.95;99169.84;5155470;27;20030;-65
2022/05/19 05:54:34;;;;;;;1.83;1.20;;;;;;;20.01;35.14;99175.88;5155049;27;20037;-65
2022/05/19 05:57:00;;;;;;;1.70;1.10;;;;;;;20.01;35.10;99166.97;5155253;27;20442;-65
2022/05/19 05:59:26;;;;;;;2.30;0.95;;;;;;;20.05;35.25;99181.69;5154237;27;20095;-65
2022/05/19 06:01:52;;;;;;;2.88;0.90;;;;;;;20.06;35.38;99181.50;5139957;27;20035;-66
2022/05/19 06:04:17;;;;;;;2.10;1.13;;;;;;;20.07;35.39;99171.59;5134336;27;20027;-62
2022/05/19 06:06:45;;;;;;;2.40;1.13;;;;;;;20.09;35.11;99181.09;5153813;27;20038;-65
2022/05/19 06:09:12;;;;;;;1.67;1.10;;;;;;;20.12;35.07;99182.59;5152558;27;20027;-66
2022/05/19 06:11:38;;;;;;;2.30;1.30;;;;;;;20.11;35.20;99170.19;5155018;27;20027;-66
2022/05/19 06:14:04;;;;;;;2.63;1.33;;;;;;;20.13;35.23;99179.69;5154820;27;20041;-65
2022/05/19 06:16:29;;;;;;;1.77;1.10;;;;;;;20.12;35.30;99174.53;5153853;27;20058;-66
2022/05/19 06:18:55;;;;;;;1.70;1.08;;;;;;;20.12;35.32;99171.84;5154541;27;20153;-65
2022/05/19 06:21:21;;;;;;;2.05;1.35;;;;;;;20.13;35.45;99166.28;5151891;27;20516;-65
2022/05/19 06:23:47;;;;;;;4.47;1.33;;;;;;;20.12;35.46;99169.97;5147873;27;20126;-65
2022/05/19 06:26:13;;;;;;;4.75;1.00;;;;;;;20.09;35.67;99167.69;5143606;27;20019;-65
2022/05/19 06:28:38;;;;;;;1.77;0.90;;;;;;;19.98;36.08;99162.81;5134365;27;20045;-65
2022/05/19 06:31:05;;;;;;;1.73;1.10;;;;;;;19.91;36.08;99172.69;5138428;27;20034;-65
2022/05/19 06:33:33;;;;;;;6.03;1.30;;;;;;;19.85;36.29;99171.56;5148917;27;20473;-65
2022/05/19 06:35:59;;;;;;;2.47;1.17;;;;;;;19.79;36.42;99181.19;5150225;27;20027;-64
2022/05/19 06:38:25;;;;;;;3.88;1.40;;;;;;;19.73;36.34;99179.28;5135644;27;20533;-64
2022/05/19 06:40:51;;;;;;;2.75;1.30;;;;;;;19.69;36.57;99182.53;5153787;27;20035;-64
2022/05/19 06:43:19;;;;;;;2.90;1.20;;;;;;;19.65;36.45;99174.00;5152942;27;20031;-64
2022/05/19 06:45:44;;;;;;;4.63;1.67;;;;;;;19.63;36.38;99173.38;5152729;27;20366;-64
2022/05/19 06:48:11;;;;;;;3.05;1.23;;;;;;;19.58;36.58;99171.25;5153955;27;20162;-66
2022/05/19 06:50:37;;;;;;;2.53;1.23;;;;;;;19.55;36.40;99174.31;5154223;27;20081;-65
2022/05/19 06:53:03;;;;;;;2.78;1.70;;;;;;;19.60;36.47;99177.25;5153388;27;20058;-65
2022/05/19 06:55:33;;;;;;;2.55;1.30;;;;;;;19.68;36.35;99179.00;5151435;27;20591;-65
2022/05/19 06:58:00;;;;;;;3.70;1.80;;;;;;;19.74;36.33;99183.63;5152546;27;20058;-66
2022/05/19 07:00:27;;;;;;;4.65;1.77;;;;;;;19.82;36.31;99180.00;5150104;27;20046;-64
2022/05/19 07:02:56;;;;;;;4.40;1.75;;;;;;;19.89;36.17;99190.81;5130942;27;20485;-64
2022/05/19 07:05:25;;;;;;;4.53;1.85;;;;;;;19.94;36.35;99199.13;5138652;27;20035;-65
2022/05/19 07:07:51;;;;;;;5.97;2.20;;;;;;;19.96;36.35;99189.03;5150068;27;20034;-65
2022/05/19 07:10:19;;;;;;;7.10;2.10;;;;;;;20.00;36.07;99193.00;5142946;27;20056;-66
2022/05/19 07:12:45;;;;;;;3.70;2.00;;;;;;;20.04;36.13;99194.28;5153287;27;20382;-64
2022/05/19 07:15:12;;;;;;;7.28;2.30;;;;;;;20.06;36.44;99194.09;5151332;27;20168;-65
2022/05/19 07:17:38;;;;;;;8.63;2.40;;;;;;;20.07;36.44;99185.84;5151374;27;20030;-65
2022/05/19 07:22:49;;;;;;;7.03;2.70;;;;;;;20.11;36.45;99183.63;5150256;27;20068;-65
2022/05/19 07:25:15;;;;;;;6.60;2.20;;;;;;;20.13;36.07;99182.38;5146799;27;20106;-64
2022/05/19 07:27:41;;;;;;;6.85;2.80;;;;;;;20.15;36.11;99176.00;5143053;27;20031;-66
2022/05/19 07:30:07;;;;;;;4.70;2.10;;;;;;;20.18;36.22;99172.94;5149901;27;20027;-66
2022/05/19 07:32:33;;;;;;;7.80;2.28;;;;;;;20.21;36.17;99173.38;5154126;27;20038;-65
2022/05/19 07:34:59;;;;;;;3.58;1.98;;;;;;;20.20;36.14;99169.03;5152650;27;20393;-65
2022/05/19 07:37:25;;;;;;;2.42;1.75;;;;;;;20.22;35.83;99169.66;5153302;27;20035;-65
2022/05/19 07:39:52;;;;;;;5.85;2.63;;;;;;;20.24;36.05;99177.53;5152343;27;20035;-65
2022/05/19 07:42:18;;;;;;;8.35;2.00;;;;;;;20.25;35.99;99177.34;5151662;27;20040;-65
2022/05/19 07:44:44;;;;;;;5.88;2.13;;;;;;;20.28;36.00;99170.75;5153490;27;20069;-66
2022/05/19 07:47:10;;;;;;;6.22;2.00;;;;;;;20.27;36.10;99166.38;5154311;27;20076;-65
2022/05/19 07:49:36;;;;;;;7.15;2.95;;;;;;;20.30;36.00;99162.47;5153690;27;20026;-64
2022/05/19 07:52:01;;;;;;;5.30;2.60;;;;;;;20.32;36.40;99163.13;5153130;27;20027;-65
2022/05/19 07:54:28;;;;;;;6.88;2.80;;;;;;;20.32;36.48;99163.97;5144363;27;20037;-64
2022/05/19 07:56:55;;;;;;;7.28;2.67;;;;;;;20.34;36.50;99169.97;5156500;27;20027;-65
2022/05/19 07:59:21;;;;;;;2.58;1.80;;;;;;;20.35;36.23;99171.66;5156186;27;20065;-64
2022/05/19 08:01:47;;;;;;;5.55;2.72;;;;;;;20.37;36.23;99177.63;5156998;27;20083;-65
2022/05/19 08:04:14;;;;;;;8.70;2.63;;;;;;;20.34;36.22;99169.97;5156781;27;20018;-65
2022/05/19 08:06:40;;;;;;;5.55;2.13;;;;;;;20.37;36.31;99177.63;5157270;27;20153;-66
2022/05/19 08:11:52;;;;;;;6.85;2.35;;;;;;;20.38;36.56;99165.03;5150579;27;20118;-65
2022/05/19 08:17:04;;;;;;;4.90;2.03;;;;;;;20.37;36.52;99171.44;5153351;27;20393;-66
2022/05/19 08:19:30;;;;;;;4.20;1.60;;;;;;;20.37;36.31;99164.19;5156606;27;20038;-66
2022/05/19 08:21:56;;;;;;;6.45;2.22;;;;;;;20.36;36.25;99165.25;5156960;27;20030;-66
2022/05/19 08:24:24;;;;;;;5.72;2.15;;;;;;;20.35;36.21;99152.84;5149115;27;20034;-66
2022/05/19 08:26:52;;;;;;;4.53;1.65;;;;;;;20.34;36.06;99150.31;5140364;27;20054;-66
2022/05/19 08:29:19;;;;;;;4.18;1.73;;;;;;;20.34;36.15;99143.13;5135834;27;20042;-66
2022/05/19 08:31:45;;;;;;;3.55;1.80;;;;;;;20.33;36.02;99151.34;5136340;27;20039;-66
2022/05/19 08:34:13;;;;;;;8.20;2.00;;;;;;;20.33;36.02;99154.03;5136457;27;20572;-66
2022/05/19 08:36:39;;;;;;;4.63;2.00;;;;;;;20.33;35.96;99154.88;5145252;27;20113;-66
2022/05/19 08:39:05;;;;;;;5.60;2.13;;;;;;;20.33;36.08;99144.13;5156403;27;20034;-66
2022/05/19 08:41:38;;;;;;;4.53;1.70;;;;;;;20.34;36.12;99137.75;5156663;27;20034;-67
2022/05/19 08:44:24;;;;;;;1.80;1.30;;;;;;;20.37;35.92;99142.69;5154758;27;20062;-67
2022/05/19 08:46:53;;;;;;;4.75;1.80;;;;;;;20.35;36.00;99136.72;5156174;27;20079;-66
2022/05/19 08:49:30;;;;;;;5.05;2.22;;;;;;;20.37;36.03;99134.63;5155573;27;20039;-66
2022/05/19 08:52:08;;;;;;;4.95;1.83;;;;;;;20.37;36.07;99133.81;5156907;27;20030;-66
2022/05/19 08:54:35;;;;;;;2.80;1.75;;;;;;;20.39;36.08;99129.91;5156458;27;20030;-65
2022/05/19 08:57:06;;;;;;;5.03;1.95;;;;;;;20.41;36.02;99143.16;5155931;27;20118;-65
2022/05/19 08:59:37;;;;;;;5.57;1.92;;;;;;;20.42;35.90;99148.34;5140412;27;20043;-66
2022/05/19 09:02:15;;;;;;;5.03;1.65;;;;;;;20.42;35.82;99150.22;5135698;27;20030;-66
2022/05/19 09:05:08;;;;;;;2.10;1.17;;;;;;;20.43;35.70;99141.94;5149226;27;20034;-65
2022/05/19 09:08:05;;;;;;;4.90;1.60;;;;;;;20.44;35.80;99145.44;5144596;27;20034;-65
2022/05/19 09:10:58;;;;;;;3.63;1.50;;;;;;;20.43;35.75;99141.13;5137391;27;20035;-66
2022/05/19 09:13:28;;;;;;;1.98;1.35;;;;;;;20.45;35.67;99149.78;5156047;27;20440;-66
2022/05/19 09:15:55;;;;;;;4.97;1.80;;;;;;;20.46;35.63;99142.56;5155376;27;20509;-66
2022/05/19 09:18:30;;;;;;;6.78;1.90;;;;;;;20.48;35.56;99140.53;5153699;27;20078;-66
2022/05/19 09:20:57;;;;;;;5.10;2.20;;;;;;;20.49;35.88;99129.56;5155758;27;20481;-66
2022/05/19 09:23:23;;;;;;;4.93;1.88;;;;;;;20.49;35.60;99139.50;5154873;27;20030;-66
2022/05/19 09:26:21;;;;;;;4.50;1.35;;;;;;;20.52;35.68;99137.25;5155995;27;20035;-66
2022/05/19 09:28:47;;;;;;;5.70;2.00;;;;;;;20.52;35.54;99139.09;5155722;27;20035;-65
2022/05/19 09:31:13;;;;;;;6.22;1.83;;;;;;;20.53;35.46;99130.84;5155608;27;20091;-66
2022/05/19 09:33:47;;;;;;;6.45;1.63;;;;;;;20.55;35.49;99139.56;5138268;27;20077;-65
2022/05/19 09:36:14;;;;;;;4.68;1.70;;;;;;;20.55;35.79;99136.88;5134744;27;20031;-66
2022/05/19 09:38:50;;;;;;;8.00;1.90;;;;;;;20.59;36.21;99121.16;5135076;27;20156;-66
2022/05/19 09:41:36;;;;;;;11.23;1.35;;;;;;;20.59;36.40;99123.84;5134726;27;20034;-66
2022/05/19 09:44:04;;;;;;;4.32;1.48;;;;;;;20.60;36.52;99122.84;5138804;27;20027;-66
2022/05/19 09:46:42;;;;;;;3.17;1.23;;;;;;;20.61;36.41;99123.66;5134672;27;20379;-66
2022/05/19 09:49:24;;;;;;;5.40;1.90;;;;;;;20.62;36.44;99128.84;5134328;27;20053;-66
2022/05/19 09:51:51;;;;;;;4.22;1.40;;;;;;;20.61;36.12;99121.81;5135021;27;20114;-66
2022/05/19 09:54:17;;;;;;;4.53;1.50;;;;;;;20.62;36.24;99142.28;5141929;27;20030;-66
2022/05/19 09:56:53;;;;;;;2.15;1.55;;;;;;;20.63;35.92;99127.81;5155110;27;20034;-66
2022/05/19 09:59:37;;;;;;;3.33;1.73;;;;;;;20.63;35.53;99124.28;5155246;27;20074;-66
2022/05/19 10:02:18;;;;;;;7.00;1.70;;;;;;;20.60;35.46;99117.47;5155326;27;20095;-66
2022/05/19 10:04:57;;;;;;;9.18;2.47;;;;;;;20.61;35.37;99127.19;5154330;27;20033;-66
2022/05/19 10:07:27;;;;;;;2.55;1.35;;;;;;;20.63;35.36;99124.28;5155078;27;20038;-66
2022/05/19 10:09:56;;;;;;;3.78;1.50;;;;;;;20.60;35.29;99106.69;5135936;27;20031;-67
2022/05/19 10:12:28;;;;;;;4.85;1.85;;;;;;;20.60;35.35;99109.41;5154767;27;20069;-67
2022/05/19 10:15:22;;;;;;;2.42;1.40;;;;;;;20.59;35.31;99099.66;5154486;27;20519;-67
2022/05/19 10:18:31;;;;;;;5.97;1.30;;;;;;;20.58;35.24;99112.28;5151239;27;20553;-66
2022/05/19 10:21:27;;;;;;;4.93;1.60;;;;;;;20.57;35.16;99093.66;5109149;27;20049;-66
2022/05/19 10:23:58;;;;;;;9.85;1.80;;;;;;;20.56;35.51;99106.28;5127234;27;20045;-67
2022/05/19 10:26:47;;;;;;;3.42;1.80;;;;;;;20.57;35.30;99096.34;5144305;27;20057;-66
2022/05/19 10:32:53;;;;;;;2.70;0.85;;;;;;;20.56;35.50;99086.63;5071062;28;20047;-66
2022/05/19 10:35:21;;;;;;;4.85;1.08;;;;;;;20.58;35.54;99082.72;5070040;28;20146;-66
2022/05/19 10:38:12;;;;;;;2.05;1.25;;;;;;;20.61;35.29;99086.88;5132816;27;20046;-66
2022/05/19 10:41:05;;;;;;;4.30;1.30;;;;;;;20.61;35.17;99089.56;5154142;27;20621;-66
2022/05/19 10:43:39;;;;;;;2.42;0.90;;;;;;;20.61;35.22;99080.63;5153659;27;20086;-66
2022/05/19 10:46:10;;;;;;;5.03;1.20;;;;;;;20.63;35.22;99084.81;5154726;27;20061;-66
2022/05/19 10:48:57;;;;;;;6.43;1.30;;;;;;;20.63;35.08;99083.97;5154343;27;20084;-67
2022/05/19 10:51:38;;;;;;;2.15;1.08;;;;;;;20.63;34.94;99090.19;5154132;27;20049;-67
2022/05/19 10:54:26;;;;;;;3.08;1.23;;;;;;;20.63;35.03;99079.44;5153570;27;20517;-67
2022/05/19 10:57:24;;;;;;;2.60;0.90;;;;;;;20.62;34.62;99067.03;5154558;27;20046;-66
2022/05/19 10:59:55;;;;;;;2.80;1.15;;;;;;;20.63;34.76;99087.50;5154242;27;20037;-66
2022/05/19 11:02:24;;;;;;;1.80;1.00;;;;;;;20.62;34.55;99080.47;5154432;27;20030;-66
2022/05/19 11:05:20;;;;;;;2.60;1.15;;;;;;;20.62;34.68;99090.38;5153103;27;20057;-66
2022/05/19 11:07:47;;;;;;;2.65;1.35;;;;;;;20.62;34.57;99085.84;5154414;27;20447;-66
2022/05/19 11:11:00;;;;;;;2.45;1.15;;;;;;;20.64;34.56;99083.78;5153486;27;20401;-66
2022/05/19 11:13:55;;;;;;;1.70;1.00;;;;;;;20.62;34.56;99069.72;5131863;27;20039;-66
2022/05/19 11:16:42;;;;;;;2.15;0.90;;;;;;;20.62;34.68;99069.72;5134896;27;20059;-66
2022/05/19 11:19:16;;;;;;;2.58;1.10;;;;;;;20.63;34.57;99065.16;5139356;27;20031;-66
2022/05/19 11:21:55;;;;;;;2.28;0.88;;;;;;;20.65;34.51;99068.47;5148544;27;20039;-66
2022/05/19 11:27:48;;;;;;;2.58;1.10;;;;;;;20.62;34.63;99072.41;5135096;27;20094;-66
2022/05/19 11:30:19;;;;;;;4.07;0.95;;;;;;;20.63;34.45;99075.91;5153322;27;20087;-67
2022/05/19 11:32:52;;;;;;;1.85;0.95;;;;;;;20.63;34.28;99083.97;5157522;27;20406;-66
2022/05/19 11:35:27;;;;;;;2.03;0.98;;;;;;;20.62;34.58;99075.09;5157886;27;20084;-68
2022/05/19 11:38:16;;;;;;;1.67;0.93;;;;;;;20.61;34.29;99073.44;5156953;27;20065;-65
2022/05/19 11:41:00;;;;;;;3.03;1.13;;;;;;;20.60;34.37;99071.75;5139171;27;20043;-65
2022/05/19 11:43:39;;;;;;;1.90;1.02;;;;;;;20.61;34.37;99064.50;5155746;27;20098;-66
2022/05/19 11:46:19;;;;;;;1.88;1.30;;;;;;;20.60;34.44;99058.31;5156283;27;20037;-64
2022/05/19 11:55:13;;;;;;;3.75;1.13;;;;;;;20.65;34.88;99047.81;5157427;27;20045;-65
2022/05/19 11:57:52;;;;;;;8.10;1.10;;;;;;;20.67;34.94;99051.09;5157192;27;20082;-65
2022/05/19 12:00:26;;;;;;;2.22;1.30;;;;;;;20.69;35.11;99045.56;5156540;27;20035;-70
2022/05/19 12:03:04;;;;;;;8.00;1.00;;;;;;;20.75;35.15;99042.09;5156826;27;20489;-65
2022/05/19 12:05:36;;;;;;;2.03;0.98;;;;;;;20.79;35.09;99035.28;5139383;27;20042;-65
2022/05/19 12:08:18;;;;;;;4.00;0.90;;;;;;;20.80;34.88;99030.75;5145782;27;20027;-64
2022/05/19 12:10:53;;;;;;;1.10;0.88;;;;;;;20.80;35.00;99034.25;5150285;27;20030;-64
2022/05/19 12:13:30;;;;;;;2.55;1.20;;;;;;;20.81;34.81;99035.06;5151254;27;20041;-65